createdAt,value
2019-01-19T04:30:51.456Z,96.52
2019-01-19T04:42:51.311Z,96.20
2019-01-19T04:44:51.298Z,96.52
2019-01-19T07:29:50.540Z,94.31
2019-01-19T08:44:14.582Z,84.65
2019-01-19T09:41:13.995Z,78.74
2019-01-19T09:46:13.953Z,77.86
2019-01-19T09:49:13.918Z,77.48
2019-01-19T09:59:38.706Z,78.43
2019-01-19T10:00:45.400Z,77.13
2019-01-19T10:02:03.669Z,76.81
2019-01-19T10:03:03.648Z,77.13
2019-01-19T10:04:03.653Z,77.13
2019-01-19T10:05:03.634Z,76.19
2019-01-19T10:06:03.632Z,76.19
2019-01-19T10:07:03.619Z,75.95
2019-01-19T10:08:03.618Z,76.26
2019-01-19T10:09:03.599Z,76.57
2019-01-19T10:10:03.592Z,76.26
2019-01-19T10:11:03.574Z,75.95
2019-01-19T10:12:03.557Z,76.89
2019-01-19T10:13:03.546Z,76.36
2019-01-19T10:14:04.216Z,76.15
2019-01-19T10:15:03.539Z,76.99
2019-01-19T10:16:03.520Z,76.36
2019-01-19T10:17:03.511Z,76.36
2019-01-19T10:18:03.496Z,76.36
2019-01-19T10:19:03.489Z,76.36
2019-01-19T10:20:03.489Z,76.36
2019-01-19T10:21:03.503Z,76.15
2019-01-19T10:22:03.485Z,75.39
2019-01-19T10:23:03.447Z,75.42
2019-01-19T10:24:03.448Z,75.39
2019-01-19T10:25:03.425Z,75.70
2019-01-19T10:26:03.418Z,74.76
2019-01-19T10:27:03.447Z,73.30
2019-01-19T10:28:03.394Z,74.97
2019-01-19T10:29:03.387Z,74.73
2019-01-19T10:30:03.373Z,75.36
2019-01-19T10:31:03.358Z,75.14
2019-01-19T10:32:03.366Z,75.14
2019-01-19T10:33:03.354Z,75.36
2019-01-19T10:34:03.340Z,74.62
2019-01-19T10:35:03.320Z,74.52
2019-01-19T10:36:03.363Z,74.93
2019-01-19T10:37:03.305Z,74.52
2019-01-19T10:38:03.297Z,73.68
2019-01-19T10:39:03.291Z,73.89
2019-01-19T10:40:03.292Z,73.68
2019-01-19T10:41:03.267Z,74.31
2019-01-19T10:42:03.323Z,73.16
2019-01-19T10:43:03.246Z,73.58
2019-01-19T10:44:03.223Z,73.79
2019-01-19T10:53:36.229Z,72.60
2019-01-19T10:53:36.332Z,73.23
2019-01-19T10:53:36.348Z,73.75
2019-01-19T10:54:28.718Z,73.33
2019-01-19T10:55:28.763Z,73.33
2019-01-19T10:56:28.683Z,72.29
2019-01-19T10:57:28.673Z,72.71
2019-01-19T10:58:28.668Z,72.39
2019-01-19T10:59:28.660Z,72.81
2019-01-19T11:00:28.642Z,72.50
2019-01-19T11:01:28.673Z,72.18
2019-01-19T11:02:28.653Z,73.02
2019-01-19T11:03:28.610Z,73.02
2019-01-19T11:04:28.613Z,72.81
2019-01-19T11:05:28.593Z,72.91
2019-01-19T11:06:28.927Z,72.99
2019-01-19T11:07:28.573Z,72.88
2019-01-19T11:08:28.560Z,72.25
2019-01-19T11:09:28.545Z,72.18
2019-01-19T11:10:28.536Z,72.68
2019-01-19T11:11:28.555Z,73.40
2019-01-19T11:12:28.552Z,72.99
2019-01-19T11:13:28.508Z,73.30
2019-01-19T11:14:28.492Z,72.99
2019-01-19T11:15:28.502Z,72.05
2019-01-19T11:16:28.475Z,72.25
2019-01-19T11:17:28.464Z,72.25
2019-01-19T11:18:28.456Z,72.46
2019-01-19T11:19:28.442Z,72.05
2019-01-19T11:20:28.443Z,72.25
2019-01-19T11:21:28.420Z,72.25
2019-01-19T11:22:28.415Z,72.05
2019-01-19T11:23:28.398Z,70.80
2019-01-19T11:24:28.385Z,70.58
2019-01-19T11:25:28.376Z,71.21
2019-01-19T11:26:28.397Z,70.86
2019-01-19T11:27:28.361Z,70.97
2019-01-19T11:28:28.351Z,71.00
2019-01-19T11:29:28.357Z,70.48
2019-01-19T11:30:28.333Z,70.55
2019-01-19T11:31:28.310Z,70.76
2019-01-19T11:32:29.371Z,70.69
2019-01-19T11:33:28.339Z,71.42
2019-01-19T11:34:28.282Z,71.18
2019-01-19T11:35:28.273Z,70.90
2019-01-19T11:36:28.262Z,70.34
2019-01-19T11:37:28.266Z,70.24
2019-01-19T11:38:28.256Z,69.93
2019-01-19T11:39:28.246Z,70.86
2019-01-19T11:40:28.239Z,70.45
2019-01-19T11:41:28.207Z,69.93
2019-01-19T11:42:28.251Z,69.89
2019-01-19T11:43:28.183Z,69.82
2019-01-19T11:44:28.189Z,70.00
2019-01-19T11:45:28.162Z,70.00
2019-01-19T11:46:28.156Z,70.42
2019-01-19T11:47:28.137Z,68.23
2019-01-19T11:48:28.149Z,68.54
2019-01-19T11:49:28.117Z,68.75
2019-01-19T11:50:28.157Z,68.33
2019-01-19T11:51:28.104Z,68.43
2019-01-19T11:52:28.104Z,67.99
2019-01-19T11:53:28.082Z,68.95
2019-01-19T11:54:28.091Z,68.09
2019-01-19T11:55:28.053Z,68.75
2019-01-19T11:56:28.063Z,68.30
2019-01-19T11:57:28.046Z,68.30
2019-01-19T11:58:28.041Z,68.71
2019-01-19T11:59:28.013Z,68.61
2019-01-19T12:00:27.997Z,68.61
2019-01-19T12:01:28.023Z,66.63
2019-01-19T12:02:27.979Z,67.57
2019-01-19T12:03:28.001Z,67.36
2019-01-19T12:04:27.955Z,66.21
2019-01-19T12:05:27.949Z,67.36
2019-01-19T12:06:27.941Z,66.52
2019-01-19T12:07:27.929Z,66.94
2019-01-19T12:08:27.937Z,66.52
2019-01-19T12:09:27.932Z,67.15
2019-01-19T12:10:27.891Z,66.32
2019-01-19T12:11:27.882Z,66.91
2019-01-19T12:12:27.879Z,67.12
2019-01-19T12:13:27.862Z,66.60
2019-01-19T12:14:27.850Z,66.60
2019-01-19T12:15:27.837Z,66.49
2019-01-19T12:16:27.938Z,65.66
2019-01-19T12:17:27.820Z,65.97
2019-01-19T12:18:27.871Z,65.66
2019-01-19T12:19:27.798Z,65.97
2019-01-19T12:20:27.779Z,65.97
2019-01-19T12:21:27.786Z,66.39
2019-01-19T12:22:27.761Z,65.87
2019-01-19T12:23:27.762Z,65.14
2019-01-19T12:24:27.740Z,65.56
2019-01-19T12:25:27.732Z,65.35
2019-01-19T12:26:27.726Z,66.29
2019-01-19T12:27:27.800Z,66.08
2019-01-19T12:28:27.692Z,65.97
2019-01-19T12:29:27.684Z,66.60
2019-01-19T12:30:27.672Z,66.42
2019-01-19T12:31:27.675Z,66.36
2019-01-19T12:32:27.649Z,65.97
2019-01-19T12:33:27.656Z,66.71
2019-01-19T12:34:27.659Z,66.60
2019-01-19T12:35:27.620Z,67.23
2019-01-19T12:36:27.604Z,67.64
2019-01-19T12:37:27.607Z,68.06
2019-01-19T12:38:27.588Z,67.85
2019-01-19T12:39:28.000Z,67.23
2019-01-19T12:40:27.571Z,66.81
2019-01-19T12:41:27.550Z,66.08
2019-01-19T12:42:27.543Z,65.84
2019-01-19T12:43:27.534Z,66.05
2019-01-19T12:44:27.533Z,65.84
2019-01-19T12:45:27.517Z,64.90
2019-01-19T12:46:27.502Z,66.05
2019-01-19T12:47:27.498Z,65.94
2019-01-19T12:48:27.475Z,65.53
2019-01-19T12:49:27.489Z,65.32
2019-01-19T12:50:28.611Z,64.69
2019-01-19T12:51:27.448Z,65.84
2019-01-19T12:52:27.430Z,66.25
2019-01-19T12:53:27.423Z,65.32
2019-01-19T12:54:27.411Z,65.32
2019-01-19T12:55:27.427Z,65.42
2019-01-19T12:56:27.434Z,64.90
2019-01-19T12:57:27.384Z,64.28
2019-01-19T12:58:27.513Z,65.22
2019-01-19T12:59:27.360Z,64.87
2019-01-19T13:00:27.348Z,64.77
2019-01-19T13:01:27.342Z,65.19
2019-01-19T13:02:27.322Z,64.87
2019-01-19T13:03:27.389Z,64.77
2019-01-19T13:04:27.300Z,64.80
2019-01-19T13:05:27.289Z,64.90
2019-01-19T13:06:27.279Z,65.00
2019-01-19T13:07:27.268Z,65.22
2019-01-19T13:08:34.188Z,65.22
2019-01-19T13:09:28.245Z,65.11
2019-01-19T13:10:27.251Z,65.00
2019-01-19T13:11:27.228Z,64.90
2019-01-19T13:12:27.213Z,64.90
2019-01-19T13:13:27.297Z,64.59
2019-01-19T13:14:27.212Z,64.90
2019-01-19T13:15:27.183Z,64.48
2019-01-19T13:16:27.174Z,64.59
2019-01-19T13:17:27.164Z,64.93
2019-01-19T13:18:27.237Z,65.24
2019-01-19T13:19:27.177Z,65.56
2019-01-19T13:20:27.168Z,65.63
2019-01-19T13:21:27.122Z,65.35
2019-01-19T13:22:27.139Z,65.11
2019-01-19T13:23:27.097Z,65.32
2019-01-19T13:24:27.086Z,64.48
2019-01-19T13:25:27.114Z,64.80
2019-01-19T13:26:27.079Z,64.90
2019-01-19T13:27:27.063Z,64.59
2019-01-19T13:28:27.036Z,64.38
2019-01-19T13:29:27.028Z,63.76
2019-01-19T13:30:27.019Z,63.97
2019-01-19T13:31:27.156Z,64.17
2019-01-19T13:32:27.035Z,64.59
2019-01-19T13:33:26.989Z,64.48
2019-01-19T13:34:26.981Z,64.28
2019-01-19T13:35:27.015Z,64.62
2019-01-19T13:36:26.953Z,64.28
2019-01-19T13:37:26.948Z,64.10
2019-01-19T13:38:26.984Z,64.83
2019-01-19T13:39:26.936Z,64.52
2019-01-19T13:40:26.919Z,64.31
2019-01-19T13:41:26.897Z,64.20
2019-01-19T13:42:26.943Z,64.93
2019-01-19T13:43:26.882Z,65.14
2019-01-19T13:44:26.873Z,64.72
2019-01-19T13:45:26.905Z,64.62
2019-01-19T13:46:26.847Z,64.41
2019-01-19T13:47:26.835Z,64.31
2019-01-19T13:48:26.821Z,65.03
2019-01-19T13:49:26.814Z,64.72
2019-01-19T13:50:26.801Z,64.83
2019-01-19T13:51:26.798Z,64.83
2019-01-19T13:52:26.795Z,64.96
2019-01-19T13:53:26.779Z,64.83
2019-01-19T13:54:26.770Z,64.93
2019-01-19T13:55:26.744Z,65.56
2019-01-19T13:56:26.758Z,64.83
2019-01-19T13:57:26.725Z,64.72
2019-01-19T13:58:26.713Z,64.93
2019-01-19T13:59:26.724Z,64.52
2019-01-19T14:00:26.694Z,64.83
2019-01-19T14:01:26.678Z,64.55
2019-01-19T14:02:26.677Z,63.92
2019-01-19T14:03:26.662Z,64.23
2019-01-19T14:04:26.741Z,64.34
2019-01-19T14:05:26.693Z,64.34
2019-01-19T14:06:26.630Z,64.89
2019-01-19T14:07:26.632Z,64.99
2019-01-19T14:08:26.604Z,64.89
2019-01-19T14:09:26.609Z,64.78
2019-01-19T14:10:26.588Z,64.23
2019-01-19T14:11:26.575Z,64.23
2019-01-19T14:12:26.576Z,64.02
2019-01-19T14:13:26.547Z,63.81
2019-01-19T14:14:26.541Z,64.34
2019-01-19T14:15:26.529Z,64.12
2019-01-19T14:16:26.522Z,63.50
2019-01-19T14:17:26.506Z,63.81
2019-01-19T14:18:26.521Z,64.02
2019-01-19T14:19:26.489Z,64.34
2019-01-19T14:20:26.481Z,63.61
2019-01-19T14:21:26.469Z,64.26
2019-01-19T14:22:26.464Z,64.05
2019-01-19T14:23:26.439Z,64.58
2019-01-19T14:24:26.434Z,64.78
2019-01-19T14:25:26.431Z,63.87
2019-01-19T14:26:26.434Z,63.64
2019-01-19T14:27:26.399Z,64.99
2019-01-19T14:28:26.386Z,64.47
2019-01-19T14:29:26.404Z,64.92
2019-01-19T14:30:26.379Z,64.70
2019-01-19T14:31:26.356Z,64.60
2019-01-19T14:32:26.343Z,65.13
2019-01-19T14:33:26.335Z,64.92
2019-01-19T14:34:26.327Z,64.36
2019-01-19T14:35:26.316Z,64.39
2019-01-19T14:36:26.301Z,64.47
2019-01-19T14:37:26.331Z,64.36
2019-01-19T14:38:26.295Z,64.39
2019-01-19T14:39:26.285Z,64.50
2019-01-19T14:40:26.260Z,65.02
2019-01-19T14:41:26.263Z,64.60
2019-01-19T14:42:26.244Z,64.84
2019-01-19T14:43:26.231Z,65.02
2019-01-19T14:44:26.348Z,65.26
2019-01-19T14:45:26.204Z,65.13
2019-01-19T14:46:26.198Z,65.75
2019-01-19T14:47:26.228Z,64.92
2019-01-19T14:48:26.171Z,64.92
2019-01-19T14:49:26.184Z,64.81
2019-01-19T14:50:26.151Z,64.60
2019-01-19T14:51:26.164Z,64.50
2019-01-19T14:52:26.162Z,64.92
2019-01-19T14:53:26.139Z,65.02
2019-01-19T14:54:26.113Z,64.81
2019-01-19T14:55:26.096Z,64.95
2019-01-19T14:56:26.085Z,64.39
2019-01-19T14:57:26.083Z,65.05
2019-01-19T14:58:26.065Z,64.95
2019-01-19T14:59:26.052Z,65.57
2019-01-19T15:00:26.041Z,64.84
2019-01-19T15:01:26.046Z,64.84
2019-01-19T15:02:26.024Z,65.05
2019-01-19T15:03:26.014Z,65.60
2019-01-19T15:04:26.003Z,66.23
2019-01-19T15:05:25.997Z,66.13
2019-01-19T15:06:25.981Z,65.60
2019-01-19T15:07:25.975Z,65.50
2019-01-19T15:08:25.973Z,65.71
2019-01-19T15:09:25.951Z,65.91
2019-01-19T15:10:25.957Z,65.91
2019-01-19T15:11:26.007Z,66.33
2019-01-19T15:12:25.931Z,66.02
2019-01-19T15:13:25.970Z,65.50
2019-01-19T15:14:25.896Z,65.71
2019-01-19T15:15:25.893Z,65.84
2019-01-19T15:16:25.898Z,66.05
2019-01-19T15:17:25.863Z,66.05
2019-01-19T15:18:25.914Z,65.81
2019-01-19T15:19:25.849Z,65.91
2019-01-19T15:20:25.832Z,65.81
2019-01-19T15:21:25.848Z,66.33
2019-01-19T15:22:25.810Z,66.05
2019-01-19T15:23:25.800Z,65.63
2019-01-19T15:24:25.807Z,65.84
2019-01-19T15:25:25.781Z,66.26
2019-01-19T15:26:25.773Z,66.26
2019-01-19T15:27:25.761Z,66.89
2019-01-19T15:28:25.877Z,66.57
2019-01-19T15:29:25.743Z,66.81
2019-01-19T15:30:25.786Z,66.81
2019-01-19T15:31:25.724Z,66.50
2019-01-19T15:32:25.721Z,68.48
2019-01-19T15:33:25.702Z,68.17
2019-01-19T15:34:25.690Z,67.76
2019-01-19T15:35:25.678Z,66.92
2019-01-19T15:36:25.666Z,67.30
2019-01-19T15:37:25.660Z,66.99
2019-01-19T15:38:25.657Z,67.13
2019-01-19T15:39:25.634Z,67.76
2019-01-19T15:40:25.627Z,68.07
2019-01-19T15:41:25.615Z,68.07
2019-01-19T15:42:25.621Z,67.83
2019-01-19T15:43:25.594Z,68.28
2019-01-19T15:44:25.585Z,68.17
2019-01-19T15:45:25.576Z,68.10
2019-01-19T15:46:25.572Z,68.62
2019-01-19T15:47:25.553Z,68.20
2019-01-19T15:48:25.595Z,68.93
2019-01-19T15:49:25.531Z,68.86
2019-01-19T15:50:25.577Z,68.76
2019-01-19T15:51:25.533Z,69.31
2019-01-19T15:52:25.499Z,69.11
2019-01-19T16:16:50.888Z,68.79
2019-01-19T16:19:50.873Z,68.76
2019-01-19T16:20:50.861Z,68.13
2019-01-19T16:21:50.846Z,68.76
2019-01-19T16:22:50.824Z,68.34
2019-01-19T16:23:50.816Z,68.96
2019-01-19T16:25:50.808Z,68.34
2019-01-19T16:26:50.813Z,68.55
2019-01-19T16:27:50.774Z,68.02
2019-01-19T16:31:50.739Z,68.16
2019-01-19T21:43:47.482Z,84.30
2019-01-19T22:11:47.158Z,85.77
